KCEC/CEC METAR and TAF weather

Enter ICAO airport designator
Station Type Date Time Source
KCEC METAR 2022/01/18 07:56 UTC NOAA

KCEC 180756Z AUTO 09004KT 5SM BR OVC006 07/06 A3013 RMK AO2 SLP204 T00720061 401000028


Station Type Date Time Source
KCEC Decoded METAR 2022/01/18 07:56 UTC NOAA

CRESCENT CITY MC NAMARA, CA, United States (KCEC) 41-47N 124-14W
Jan 18, 2022 - 02:56 AM EST / 2022.01.18 0756 UTC
Wind: from the E (090 degrees) at 5 MPH (4 KT):0
Visibility: 5 mile(s):0
Sky conditions: overcast
Weather: mist
Temperature: 45.0 F (7.2 C)
Dew Point: 43.0 F (6.1 C)
Relative Humidity: 92%
Pressure (altimeter): 30.13 in. Hg (1020 hPa)
ob: KCEC 180756Z AUTO 09004KT 5SM BR OVC006 07/06 A3013 RMK AO2 SLP204 T00720061 401000028
cycle: 8

Station Type Date Time Source
KCEC TAF 2022/01/18 06:58 UTC NOAA

TAF KCEC 180555Z 1806/1906 VRB03KT 4SM BR OVC005
FM180800 05003KT 1SM BR OVC003
FM181600 VRB03KT 4SM BR BKN012
FM182000 24005KT 6SM HZ SCT020 BKN060
FM182200 34005KT 6SM -DZ BR BKN015 OVC060
FM190300 01003KT 6SM BR OVC012

Example: see airport list